createdAt,value
2019-06-26T00:00:02.675Z,60.31
2019-06-26T00:02:10.982Z,60.37
2019-06-26T00:04:17.453Z,60.38
2019-06-26T00:06:23.913Z,60.32
2019-06-26T00:08:30.348Z,60.27
2019-06-26T00:10:36.787Z,60.39
2019-06-26T00:12:43.574Z,60.46
2019-06-26T00:14:50.090Z,60.61
2019-06-26T00:16:56.469Z,60.72
2019-06-26T00:19:02.854Z,60.69
2019-06-26T00:21:09.464Z,60.74
2019-06-26T00:23:15.867Z,60.88
2019-06-26T00:25:22.294Z,61.03
2019-06-26T00:27:28.728Z,61.09
2019-06-26T00:29:35.248Z,61.10
2019-06-26T00:31:41.668Z,61.08
2019-06-26T00:33:48.113Z,61.21
2019-06-26T00:35:54.660Z,61.25
2019-06-26T00:38:01.041Z,61.26
2019-06-26T00:40:08.396Z,61.16
2019-06-26T00:42:14.810Z,61.22
2019-06-26T00:44:21.212Z,61.18
2019-06-26T00:46:27.761Z,61.33
2019-06-26T00:48:34.191Z,61.58
2019-06-26T00:50:40.561Z,61.56
2019-06-26T00:52:47.135Z,61.65
2019-06-26T00:54:53.693Z,61.65
2019-06-26T00:57:00.153Z,61.75
2019-06-26T00:59:06.550Z,61.79
2019-06-26T01:01:13.039Z,61.78
2019-06-26T01:03:19.532Z,61.83
2019-06-26T01:05:25.907Z,61.90
2019-06-26T01:07:32.339Z,62.13
2019-06-26T01:09:38.842Z,62.27
2019-06-26T01:11:45.865Z,62.35
2019-06-26T01:13:58.020Z,62.75
2019-06-26T01:16:00.393Z,62.75
2019-06-26T01:18:06.955Z,62.99
2019-06-26T01:20:13.862Z,63.15
2019-06-26T01:22:20.289Z,63.28
2019-06-26T01:24:26.660Z,63.56
2019-06-26T01:26:33.111Z,63.70
2019-06-26T01:28:39.490Z,63.73
2019-06-26T01:30:45.884Z,63.75
2019-06-26T01:32:52.438Z,63.99
2019-06-26T01:34:59.936Z,64.13
2019-06-26T01:37:06.382Z,64.25
2019-06-26T01:39:12.836Z,64.32
2019-06-26T01:41:19.388Z,64.56
2019-06-26T01:43:25.825Z,64.69
2019-06-26T01:45:32.282Z,64.80
2019-06-26T01:47:38.890Z,64.97
2019-06-26T01:49:45.361Z,65.02
2019-06-26T01:51:51.878Z,65.08
2019-06-26T01:53:58.341Z,65.20
2019-06-26T01:56:05.018Z,65.36
2019-06-26T01:58:11.413Z,65.55
2019-06-26T02:00:18.891Z,65.69
2019-06-26T02:02:25.590Z,65.66
2019-06-26T02:04:32.068Z,65.88
2019-06-26T02:06:38.435Z,65.97
2019-06-26T02:08:44.909Z,66.15
2019-06-26T02:10:52.504Z,66.05
2019-06-26T02:12:58.982Z,66.03
2019-06-26T02:15:08.032Z,66.28
2019-06-26T02:17:14.664Z,66.15
2019-06-26T02:19:21.318Z,66.16
2019-06-26T02:21:27.851Z,66.32
2019-06-26T02:23:34.279Z,66.33
2019-06-26T02:25:41.746Z,66.35
2019-06-26T02:27:48.137Z,66.34
2019-06-26T02:29:54.553Z,66.38
2019-06-26T02:32:01.043Z,66.49
2019-06-26T02:34:07.614Z,66.57
2019-06-26T02:36:14.093Z,66.44
2019-06-26T02:38:20.546Z,66.62
2019-06-26T02:40:27.168Z,66.51
2019-06-26T02:42:33.870Z,66.38
2019-06-26T02:44:52.953Z,66.24
2019-06-26T02:46:48.601Z,66.23
2019-06-26T02:48:54.983Z,66.22
2019-06-26T02:51:01.395Z,66.01
2019-06-26T02:53:07.880Z,66.11
2019-06-26T02:55:14.489Z,66.01
2019-06-26T02:57:21.010Z,65.82
2019-06-26T02:59:27.399Z,65.83
2019-06-26T03:01:34.035Z,65.72
2019-06-26T03:03:40.472Z,65.69
2019-06-26T03:05:46.855Z,65.60
2019-06-26T03:07:53.298Z,65.36
2019-06-26T03:09:59.710Z,65.27
2019-06-26T03:12:06.287Z,65.34
2019-06-26T03:14:12.692Z,65.38
2019-06-26T03:16:19.149Z,65.32
2019-06-26T03:18:25.589Z,65.31
2019-06-26T03:20:39.442Z,65.28
2019-06-26T03:22:45.878Z,65.20
2019-06-26T03:24:52.248Z,65.04
2019-06-26T03:26:58.705Z,65.00
2019-06-26T03:29:05.300Z,64.68
2019-06-26T03:31:11.821Z,64.53
2019-06-26T03:33:18.240Z,64.29
2019-06-26T03:35:24.735Z,64.20
2019-06-26T03:37:31.173Z,64.05
2019-06-26T03:39:37.548Z,63.66
2019-06-26T03:41:43.971Z,63.45
2019-06-26T03:43:50.392Z,63.24
2019-06-26T03:45:56.802Z,62.85
2019-06-26T03:48:03.216Z,62.56
2019-06-26T03:50:10.400Z,62.58
2019-06-26T03:52:16.806Z,62.13
2019-06-26T03:54:23.305Z,61.70
2019-06-26T03:56:29.839Z,61.13
2019-06-26T03:58:36.251Z,59.63
2019-06-26T04:00:44.654Z,57.11
2019-06-26T04:02:51.167Z,54.14
2019-06-26T04:04:57.579Z,51.96
2019-06-26T04:07:05.537Z,49.69
2019-06-26T04:09:11.947Z,48.35
2019-06-26T04:11:18.377Z,47.69
2019-06-26T04:13:24.829Z,46.47
2019-06-26T04:15:41.872Z,45.15
2019-06-26T04:17:41.524Z,44.42
2019-06-26T04:19:47.939Z,42.98
2019-06-26T04:21:54.375Z,42.43
2019-06-26T04:24:01.025Z,41.34
2019-06-26T04:26:07.684Z,41.20
2019-06-26T04:28:14.127Z,40.65
2019-06-26T04:30:21.979Z,40.04
2019-06-26T04:32:28.414Z,39.15
2019-06-26T04:34:34.880Z,38.75
2019-06-26T04:36:41.371Z,37.59
2019-06-26T04:38:47.756Z,36.82
2019-06-26T04:40:54.198Z,35.15
2019-06-26T04:43:00.679Z,34.36
2019-06-26T04:45:08.858Z,34.44
2019-06-26T04:47:15.477Z,35.45
2019-06-26T04:49:22.025Z,38.18
2019-06-26T04:51:28.575Z,38.31
2019-06-26T04:53:35.067Z,37.56
2019-06-26T04:55:41.444Z,35.97
2019-06-26T04:57:47.855Z,35.29
2019-06-26T04:59:55.451Z,34.29
2019-06-26T05:02:02.002Z,32.96
2019-06-26T05:04:08.473Z,32.20
2019-06-26T05:06:14.888Z,31.12
2019-06-26T05:08:21.317Z,30.52
2019-06-26T05:10:27.730Z,30.99
2019-06-26T05:12:34.230Z,30.03
2019-06-26T05:14:40.644Z,29.23
2019-06-26T05:16:47.563Z,29.16
2019-06-26T05:18:54.032Z,28.86
2019-06-26T05:21:00.601Z,28.83
2019-06-26T05:23:07.063Z,29.99
2019-06-26T05:25:16.486Z,31.10
2019-06-26T05:27:22.955Z,30.87
2019-06-26T05:29:29.414Z,29.39
2019-06-26T05:31:35.938Z,28.36
2019-06-26T05:33:42.356Z,27.40
2019-06-26T05:35:49.003Z,27.27
2019-06-26T05:37:55.376Z,26.40
2019-06-26T05:40:01.829Z,25.76
2019-06-26T05:42:09.544Z,25.64
2019-06-26T05:44:15.930Z,25.49
2019-06-26T05:46:31.040Z,25.12
2019-06-26T05:48:30.466Z,25.37
2019-06-26T05:50:36.915Z,24.87
2019-06-26T05:52:43.407Z,24.83
2019-06-26T05:54:49.769Z,24.89
2019-06-26T05:56:56.223Z,25.26
2019-06-26T05:59:02.733Z,24.78
2019-06-26T06:01:09.463Z,25.01
2019-06-26T06:03:15.943Z,24.39
2019-06-26T06:05:22.389Z,23.73
2019-06-26T06:07:28.793Z,23.42
2019-06-26T06:09:35.252Z,23.28
2019-06-26T06:11:41.724Z,23.43
2019-06-26T06:13:48.142Z,23.24
2019-06-26T06:15:54.578Z,22.87
2019-06-26T06:18:01.027Z,23.16
2019-06-26T06:20:10.031Z,23.21
2019-06-26T06:22:16.593Z,22.83
2019-06-26T06:24:23.003Z,21.89
2019-06-26T06:26:29.379Z,21.80
2019-06-26T06:28:35.792Z,21.47
2019-06-26T06:30:42.238Z,21.54
2019-06-26T06:32:48.748Z,23.53
2019-06-26T06:34:55.647Z,24.05
2019-06-26T06:37:02.267Z,25.12
2019-06-26T06:39:08.728Z,26.20
2019-06-26T06:41:15.121Z,24.64
2019-06-26T06:43:22.758Z,24.00
2019-06-26T06:45:30.716Z,24.49
2019-06-26T06:47:37.192Z,25.84
2019-06-26T06:49:43.651Z,27.68
2019-06-26T06:51:50.720Z,28.81
2019-06-26T06:53:57.151Z,28.10
2019-06-26T06:56:03.565Z,27.61
2019-06-26T06:58:10.014Z,25.79
2019-06-26T07:00:18.636Z,23.87
2019-06-26T07:02:25.075Z,23.32
2019-06-26T07:04:31.566Z,23.27
2019-06-26T07:06:38.264Z,21.73
2019-06-26T07:08:44.931Z,20.42
2019-06-26T07:10:51.342Z,19.70
2019-06-26T07:12:57.877Z,19.25
2019-06-26T07:15:09.314Z,19.21
2019-06-26T07:17:20.359Z,19.44
2019-06-26T07:19:24.209Z,18.44
2019-06-26T07:21:31.836Z,17.89
2019-06-26T07:23:38.321Z,17.20
2019-06-26T07:25:44.772Z,17.02
2019-06-26T07:27:51.285Z,16.88
2019-06-26T07:29:57.699Z,16.83
2019-06-26T07:32:04.198Z,16.87
2019-06-26T07:34:10.593Z,17.25
2019-06-26T07:36:17.049Z,16.84
2019-06-26T07:38:23.979Z,17.39
2019-06-26T07:40:30.413Z,17.36
2019-06-26T07:42:36.790Z,16.36
2019-06-26T07:44:43.185Z,16.04
2019-06-26T07:46:49.579Z,15.68
2019-06-26T07:48:57.636Z,15.94
2019-06-26T07:51:04.371Z,16.45
2019-06-26T07:53:10.871Z,16.62
2019-06-26T07:55:17.705Z,17.18
2019-06-26T07:57:24.487Z,17.45
2019-06-26T07:59:30.903Z,17.05
2019-06-26T08:01:37.314Z,16.48
2019-06-26T08:03:43.721Z,17.21
2019-06-26T08:05:50.181Z,16.44
2019-06-26T08:07:56.660Z,15.33
2019-06-26T08:10:03.352Z,15.64
2019-06-26T08:12:09.732Z,15.75
2019-06-26T08:14:16.301Z,15.19
2019-06-26T08:16:22.808Z,16.16
2019-06-26T08:18:29.335Z,15.93
2019-06-26T08:20:51.600Z,15.78
2019-06-26T08:22:43.893Z,16.04
2019-06-26T08:24:50.366Z,15.82
2019-06-26T08:26:56.770Z,16.27
2019-06-26T08:29:03.195Z,17.26
2019-06-26T08:31:09.595Z,16.90
2019-06-26T08:33:16.210Z,16.33
2019-06-26T08:35:22.693Z,15.99
2019-06-26T08:37:29.154Z,16.09
2019-06-26T08:39:35.565Z,16.83
2019-06-26T08:41:41.935Z,18.66
2019-06-26T08:43:48.398Z,21.01
2019-06-26T08:45:54.868Z,23.93
2019-06-26T08:48:16.803Z,26.49
2019-06-26T08:50:11.333Z,28.29
2019-06-26T08:52:18.810Z,30.42
2019-06-26T08:54:25.251Z,31.59
2019-06-26T08:56:31.694Z,31.31
2019-06-26T08:58:38.114Z,31.24
2019-06-26T09:00:44.641Z,31.76
2019-06-26T09:02:51.158Z,32.50
2019-06-26T09:04:57.540Z,32.19
2019-06-26T09:07:04.046Z,31.44
2019-06-26T09:09:10.561Z,30.94
2019-06-26T09:11:17.050Z,31.69
2019-06-26T09:13:23.470Z,32.47
2019-06-26T09:15:29.913Z,32.73
2019-06-26T09:17:37.186Z,32.69
2019-06-26T09:19:43.607Z,32.75
2019-06-26T09:21:50.458Z,33.90
2019-06-26T09:23:56.881Z,33.93
2019-06-26T09:26:03.424Z,34.37
2019-06-26T09:28:09.951Z,35.28
2019-06-26T09:30:16.839Z,34.80
2019-06-26T09:32:23.343Z,34.06
2019-06-26T09:34:29.757Z,33.51
2019-06-26T09:36:36.233Z,33.78
2019-06-26T09:38:42.756Z,33.00
2019-06-26T09:40:49.151Z,32.49
2019-06-26T09:42:55.552Z,32.58
2019-06-26T09:45:02.108Z,33.60
2019-06-26T09:47:08.826Z,34.29
2019-06-26T09:49:15.266Z,34.25
2019-06-26T09:51:21.737Z,34.31
2019-06-26T09:53:32.497Z,35.05
2019-06-26T09:55:36.520Z,34.71
2019-06-26T09:57:42.902Z,34.83
2019-06-26T09:59:49.298Z,34.83
2019-06-26T10:01:55.706Z,34.69
2019-06-26T10:04:02.126Z,34.24
2019-06-26T10:06:08.641Z,33.47
2019-06-26T10:08:15.036Z,33.88
2019-06-26T10:10:22.797Z,33.71
2019-06-26T10:12:29.261Z,35.12
2019-06-26T10:14:47.429Z,35.42
2019-06-26T10:16:43.860Z,35.41
2019-06-26T10:18:50.412Z,35.13
2019-06-26T10:20:56.827Z,33.85
2019-06-26T10:23:03.280Z,32.48
2019-06-26T10:25:11.787Z,32.39
2019-06-26T10:27:18.508Z,32.20
2019-06-26T10:29:25.248Z,32.98
2019-06-26T10:31:31.638Z,32.98
2019-06-26T10:33:38.124Z,33.42
2019-06-26T10:35:44.618Z,33.05
2019-06-26T10:37:51.915Z,33.01
2019-06-26T10:39:58.340Z,32.96
2019-06-26T10:42:06.061Z,32.43
2019-06-26T10:44:12.651Z,32.46
2019-06-26T10:46:19.211Z,32.78
2019-06-26T10:48:25.646Z,33.38
2019-06-26T10:50:32.086Z,32.72
2019-06-26T10:52:38.543Z,32.65
2019-06-26T10:54:45.044Z,32.57
2019-06-26T10:56:51.680Z,32.36
2019-06-26T10:58:58.151Z,31.90
2019-06-26T11:01:04.761Z,32.30
2019-06-26T11:03:11.140Z,32.57
2019-06-26T11:05:18.505Z,32.79
2019-06-26T11:07:24.886Z,32.63
2019-06-26T11:09:31.307Z,32.41
2019-06-26T11:11:37.884Z,32.70
2019-06-26T11:13:44.350Z,32.59
2019-06-26T11:15:50.754Z,32.00
2019-06-26T11:17:58.396Z,31.62
2019-06-26T11:20:08.933Z,31.89
2019-06-26T11:22:15.334Z,31.61
2019-06-26T11:24:21.723Z,31.65
2019-06-26T11:26:28.136Z,31.40
2019-06-26T11:28:35.495Z,31.06
2019-06-26T11:30:42.012Z,31.17
2019-06-26T11:32:48.450Z,30.68
2019-06-26T11:34:54.952Z,29.81
2019-06-26T11:37:04.070Z,29.86
2019-06-26T11:39:08.950Z,30.11
2019-06-26T11:41:15.313Z,30.15
2019-06-26T11:43:21.730Z,30.65
2019-06-26T11:45:28.455Z,30.75
2019-06-26T11:47:34.903Z,30.67
2019-06-26T11:49:41.338Z,30.02
2019-06-26T11:51:48.522Z,29.95
2019-06-26T11:53:55.043Z,29.96
2019-06-26T11:56:01.443Z,30.25
2019-06-26T11:58:07.897Z,30.53
2019-06-26T12:00:18.140Z,30.48
2019-06-26T12:02:24.762Z,30.70
2019-06-26T12:04:31.843Z,29.98
2019-06-26T12:06:38.450Z,29.76
2019-06-26T12:08:44.919Z,30.80
2019-06-26T12:10:51.361Z,30.39
2019-06-26T12:12:57.767Z,30.84
2019-06-26T12:15:05.257Z,30.49
2019-06-26T12:17:11.668Z,30.52
2019-06-26T12:19:21.018Z,30.04
2019-06-26T12:21:25.454Z,29.85
2019-06-26T12:23:31.715Z,30.12
2019-06-26T12:25:38.455Z,29.84
2019-06-26T12:27:45.150Z,29.40
2019-06-26T12:29:51.535Z,30.44
2019-06-26T12:31:57.944Z,30.31
2019-06-26T12:34:04.545Z,30.39
2019-06-26T12:36:10.991Z,30.64
2019-06-26T12:38:17.445Z,30.42
2019-06-26T12:40:24.052Z,31.27
2019-06-26T12:42:31.714Z,31.37
2019-06-26T12:44:38.104Z,30.50
2019-06-26T12:46:44.558Z,30.44
2019-06-26T12:48:50.958Z,30.31
2019-06-26T12:50:57.583Z,30.20
2019-06-26T12:53:03.986Z,30.14
2019-06-26T12:55:11.060Z,29.97
2019-06-26T12:57:17.457Z,28.78
2019-06-26T12:59:23.842Z,28.98
2019-06-26T13:01:30.316Z,28.94
2019-06-26T13:03:37.883Z,29.22
2019-06-26T13:05:44.363Z,29.37
2019-06-26T13:07:50.742Z,29.53
2019-06-26T13:09:57.191Z,29.57
2019-06-26T13:12:03.633Z,29.64
2019-06-26T13:14:10.689Z,29.65
2019-06-26T13:16:17.172Z,29.47
2019-06-26T13:18:23.599Z,29.23
2019-06-26T13:20:30.095Z,28.80
2019-06-26T13:22:36.647Z,28.77
2019-06-26T13:24:44.210Z,28.94
2019-06-26T13:26:54.326Z,28.96
2019-06-26T13:28:58.184Z,29.20
2019-06-26T13:31:05.728Z,29.59
2019-06-26T13:33:12.289Z,29.98
2019-06-26T13:35:18.769Z,30.41
2019-06-26T13:37:25.331Z,30.42
2019-06-26T13:39:31.859Z,30.40
2019-06-26T13:41:38.377Z,30.61
2019-06-26T13:43:45.965Z,29.80
2019-06-26T13:45:52.481Z,29.21
2019-06-26T13:47:59.050Z,28.49
2019-06-26T13:50:09.115Z,28.51
2019-06-26T13:52:15.504Z,29.38
2019-06-26T13:54:22.081Z,29.84
2019-06-26T13:56:28.532Z,29.60
2019-06-26T13:58:35.117Z,29.26
2019-06-26T14:00:41.556Z,29.27
2019-06-26T14:02:48.137Z,30.01
2019-06-26T14:04:54.734Z,30.21
2019-06-26T14:07:01.257Z,29.53
2019-06-26T14:09:09.281Z,29.51
2019-06-26T14:11:15.820Z,29.08
2019-06-26T14:13:22.250Z,29.30
2019-06-26T14:15:28.799Z,28.59
2019-06-26T14:17:35.320Z,28.62
2019-06-26T14:19:41.851Z,29.01
2019-06-26T14:21:48.263Z,28.92
2019-06-26T14:23:54.764Z,29.00
2019-06-26T14:26:01.337Z,28.43
2019-06-26T14:28:07.904Z,27.96
2019-06-26T14:30:14.931Z,27.70
2019-06-26T14:32:22.387Z,27.33
2019-06-26T14:34:29.921Z,27.05
2019-06-26T14:36:36.576Z,26.43
2019-06-26T14:38:44.335Z,26.52
2019-06-26T14:40:50.889Z,26.57
2019-06-26T14:42:57.394Z,26.12
2019-06-26T14:45:05.419Z,25.87
2019-06-26T14:47:11.989Z,25.66
2019-06-26T14:49:18.629Z,25.65
2019-06-26T14:51:37.786Z,25.65
2019-06-26T14:53:32.611Z,25.60
2019-06-26T14:55:39.004Z,26.13
2019-06-26T14:57:46.678Z,25.80
2019-06-26T14:59:53.128Z,25.42
2019-06-26T15:01:59.578Z,26.00
2019-06-26T15:04:07.702Z,25.72
2019-06-26T15:06:16.939Z,25.91
2019-06-26T15:08:21.599Z,26.10
2019-06-26T15:10:27.958Z,26.21
2019-06-26T15:12:34.575Z,26.52
2019-06-26T15:14:41.037Z,26.61
2019-06-26T15:16:47.455Z,26.76
2019-06-26T15:18:53.907Z,26.63
2019-06-26T15:21:03.813Z,26.38
2019-06-26T15:23:10.374Z,26.41
2019-06-26T15:25:17.779Z,26.63
2019-06-26T15:27:24.317Z,27.00
2019-06-26T15:29:31.945Z,26.92
2019-06-26T15:31:38.432Z,26.94
2019-06-26T15:33:44.958Z,27.10
2019-06-26T15:35:51.565Z,27.21
2019-06-26T15:37:57.988Z,27.28
2019-06-26T15:40:06.375Z,27.52
2019-06-26T15:42:12.762Z,27.87
2019-06-26T15:44:19.255Z,27.65
2019-06-26T15:46:25.811Z,27.96
2019-06-26T15:48:32.251Z,27.86
2019-06-26T15:50:38.668Z,27.82
2019-06-26T15:52:45.102Z,27.92
2019-06-26T15:54:53.122Z,27.97
2019-06-26T15:56:59.485Z,28.34
2019-06-26T15:59:06.001Z,28.27
2019-06-26T16:01:12.485Z,28.30
2019-06-26T16:03:18.931Z,28.50
2019-06-26T16:05:26.558Z,28.60
2019-06-26T16:07:33.568Z,28.55
2019-06-26T16:09:39.997Z,28.78
2019-06-26T16:11:46.486Z,28.95
2019-06-26T16:13:53.009Z,28.97
2019-06-26T16:15:59.690Z,28.98
2019-06-26T16:18:20.940Z,28.92
2019-06-26T16:20:27.447Z,28.78
2019-06-26T16:22:33.937Z,28.37
2019-06-26T16:24:40.373Z,28.23
2019-06-26T16:26:47.287Z,28.50
2019-06-26T16:28:53.799Z,27.67
2019-06-26T16:31:00.273Z,28.17
2019-06-26T16:33:06.774Z,28.00
2019-06-26T16:35:15.457Z,28.12
2019-06-26T16:37:23.132Z,27.81
2019-06-26T16:39:31.226Z,28.17
2019-06-26T16:41:38.181Z,28.00
2019-06-26T16:43:45.804Z,28.21
2019-06-26T16:45:52.327Z,28.17
2019-06-26T16:47:58.776Z,28.52
2019-06-26T16:50:08.581Z,28.55
2019-06-26T16:52:15.027Z,28.58
2019-06-26T16:54:21.443Z,28.64
2019-06-26T16:56:28.005Z,28.91
2019-06-26T16:58:34.655Z,29.16
2019-06-26T17:00:41.069Z,29.47
2019-06-26T17:02:47.872Z,29.70
2019-06-26T17:04:54.421Z,29.84
2019-06-26T17:07:02.328Z,29.86
2019-06-26T17:09:10.480Z,29.92
2019-06-26T17:11:18.675Z,30.35
2019-06-26T17:13:24.500Z,30.57
2019-06-26T17:15:30.892Z,30.98
2019-06-26T17:17:38.751Z,31.27
2019-06-26T17:19:45.203Z,31.32
2019-06-26T17:21:52.101Z,31.50
2019-06-26T17:23:58.618Z,31.62
2019-06-26T17:26:05.234Z,31.87
2019-06-26T17:28:11.692Z,32.00
2019-06-26T17:30:19.306Z,32.34
2019-06-26T17:32:25.920Z,32.34
2019-06-26T17:34:32.582Z,32.73
2019-06-26T17:36:39.166Z,32.99
2019-06-26T17:38:45.646Z,33.05
2019-06-26T17:40:52.135Z,33.08
2019-06-26T17:43:11.925Z,33.48
2019-06-26T17:45:09.631Z,33.59
2019-06-26T17:47:15.880Z,33.93
2019-06-26T17:49:22.344Z,34.13
2019-06-26T17:51:28.886Z,34.37
2019-06-26T17:53:35.497Z,34.76
2019-06-26T17:55:41.894Z,35.09
2019-06-26T17:57:48.437Z,35.31
2019-06-26T17:59:55.215Z,35.64
2019-06-26T18:02:01.843Z,35.94
2019-06-26T18:04:08.476Z,36.33
2019-06-26T18:06:14.969Z,36.78
2019-06-26T18:08:21.377Z,37.13
2019-06-26T18:10:27.995Z,37.39
2019-06-26T18:12:34.430Z,37.70
2019-06-26T18:14:43.176Z,37.96
2019-06-26T18:16:48.931Z,38.31
2019-06-26T18:18:55.389Z,38.61
2019-06-26T18:21:01.822Z,38.67
2019-06-26T18:23:08.675Z,38.97
2019-06-26T18:25:16.702Z,39.43
2019-06-26T18:27:23.500Z,39.60
2019-06-26T18:29:29.986Z,39.75
2019-06-26T18:31:36.582Z,39.81
2019-06-26T18:33:44.367Z,39.91
2019-06-26T18:35:50.978Z,39.94
2019-06-26T18:37:57.600Z,39.99
2019-06-26T18:40:05.076Z,40.15
2019-06-26T18:42:13.155Z,39.95
2019-06-26T18:44:21.531Z,40.13
2019-06-26T18:46:29.929Z,40.12
2019-06-26T18:48:37.554Z,39.89
2019-06-26T18:50:44.071Z,40.01
2019-06-26T18:52:50.447Z,40.17
2019-06-26T18:54:56.897Z,40.80
2019-06-26T18:57:03.287Z,41.64
2019-06-26T18:59:09.686Z,43.86
2019-06-26T19:01:16.190Z,44.29
2019-06-26T19:03:22.600Z,45.86
2019-06-26T19:05:29.100Z,46.77
2019-06-26T19:07:35.511Z,47.71
2019-06-26T19:09:42.065Z,46.98
2019-06-26T19:11:48.455Z,47.52
2019-06-26T19:13:54.834Z,47.82
2019-06-26T19:16:04.347Z,48.02
2019-06-26T19:18:09.394Z,48.40
2019-06-26T19:20:16.649Z,48.40
2019-06-26T19:22:23.115Z,49.48
2019-06-26T19:24:29.564Z,48.92
2019-06-26T19:26:35.968Z,49.44
2019-06-26T19:28:42.343Z,49.83
2019-06-26T19:30:48.823Z,49.56
2019-06-26T19:32:55.347Z,49.52
2019-06-26T19:35:08.193Z,49.91
2019-06-26T19:37:10.026Z,50.22
2019-06-26T19:39:16.474Z,50.36
2019-06-26T19:41:23.026Z,50.45
2019-06-26T19:43:29.412Z,50.25
2019-06-26T19:45:35.802Z,50.83
2019-06-26T19:47:42.238Z,50.64
2019-06-26T19:49:48.612Z,50.91
2019-06-26T19:51:55.143Z,50.58
2019-06-26T19:54:04.714Z,50.68
2019-06-26T19:56:11.067Z,51.55
2019-06-26T19:58:21.315Z,51.22
2019-06-26T20:00:25.712Z,51.73
2019-06-26T20:02:32.233Z,51.20
2019-06-26T20:04:38.863Z,50.86
2019-06-26T20:06:45.285Z,51.53
2019-06-26T20:08:57.187Z,51.65
2019-06-26T20:11:00.239Z,51.64
2019-06-26T20:13:06.965Z,51.14
2019-06-26T20:15:15.251Z,51.80
2019-06-26T20:17:21.739Z,51.38
2019-06-26T20:19:28.216Z,51.33
2019-06-26T20:21:36.401Z,51.29
2019-06-26T20:23:42.902Z,51.23
2019-06-26T20:25:49.288Z,51.08
2019-06-26T20:27:57.132Z,51.13
2019-06-26T20:30:09.380Z,51.42
2019-06-26T20:32:14.066Z,51.72
2019-06-26T20:34:20.491Z,51.54
2019-06-26T20:36:26.956Z,51.80
2019-06-26T20:38:33.412Z,52.16
2019-06-26T20:40:40.070Z,52.24
2019-06-26T20:42:46.548Z,52.49
2019-06-26T20:44:53.293Z,52.50
2019-06-26T20:46:59.714Z,52.48
2019-06-26T20:49:08.749Z,52.44
2019-06-26T20:51:15.245Z,52.58
2019-06-26T20:53:21.673Z,52.30
2019-06-26T20:55:28.112Z,52.36
2019-06-26T20:57:34.539Z,52.51
2019-06-26T20:59:41.558Z,52.45
2019-06-26T21:01:48.055Z,52.37
2019-06-26T21:03:54.490Z,52.33
2019-06-26T21:06:00.922Z,52.20
2019-06-26T21:08:09.022Z,52.19
2019-06-26T21:10:15.711Z,52.33
2019-06-26T21:12:22.121Z,52.37
2019-06-26T21:14:28.604Z,52.11
2019-06-26T21:16:36.819Z,52.22
2019-06-26T21:18:43.247Z,51.87
2019-06-26T21:20:49.711Z,51.89
2019-06-26T21:22:56.502Z,52.03
2019-06-26T21:25:17.435Z,51.85
2019-06-26T21:27:15.380Z,52.10
2019-06-26T21:29:24.973Z,52.47
2019-06-26T21:31:31.606Z,52.69
2019-06-26T21:33:41.299Z,52.62
2019-06-26T21:35:47.745Z,52.85
2019-06-26T21:37:54.422Z,53.00
2019-06-26T21:40:01.023Z,53.28
2019-06-26T21:42:08.675Z,53.42
2019-06-26T21:44:15.200Z,53.51
2019-06-26T21:46:21.611Z,53.57
2019-06-26T21:48:28.281Z,53.90
2019-06-26T21:50:35.891Z,53.90
2019-06-26T21:52:42.360Z,54.01
2019-06-26T21:54:48.814Z,54.24
2019-06-26T21:57:12.760Z,54.48
2019-06-26T21:59:36.844Z,54.73
2019-06-26T22:02:01.215Z,55.03
2019-06-26T22:04:25.476Z,55.45
2019-06-26T22:06:48.724Z,55.45
2019-06-26T22:08:56.880Z,55.59
2019-06-26T22:11:04.710Z,55.86
2019-06-26T22:13:11.416Z,55.87
2019-06-26T22:15:19.076Z,55.79
2019-06-26T22:17:25.946Z,55.70
2019-06-26T22:19:32.679Z,55.78
2019-06-26T22:21:39.541Z,55.59
2019-06-26T22:23:46.016Z,55.44
2019-06-26T22:25:52.528Z,55.39
2019-06-26T22:27:58.928Z,55.59
2019-06-26T22:30:09.299Z,55.61
2019-06-26T22:32:15.871Z,55.86
2019-06-26T22:34:22.378Z,56.26
2019-06-26T22:36:28.751Z,56.20
2019-06-26T22:38:35.196Z,56.19
2019-06-26T22:40:41.703Z,56.37
2019-06-26T22:42:48.098Z,56.20
2019-06-26T22:44:54.546Z,56.23
2019-06-26T22:47:01.041Z,56.11
2019-06-26T22:49:07.692Z,56.02
2019-06-26T22:51:14.138Z,56.16
2019-06-26T22:53:20.642Z,56.02
2019-06-26T22:55:27.028Z,55.95
2019-06-26T22:57:33.506Z,55.65
2019-06-26T22:59:39.893Z,55.41
2019-06-26T23:01:46.397Z,55.12
2019-06-26T23:03:52.881Z,54.86
2019-06-26T23:05:59.264Z,54.07
2019-06-26T23:08:05.883Z,54.12
2019-06-26T23:10:12.807Z,53.59
2019-06-26T23:12:19.315Z,53.50
2019-06-26T23:14:25.747Z,53.35
2019-06-26T23:16:32.179Z,52.93
2019-06-26T23:18:38.674Z,52.80
2019-06-26T23:20:45.115Z,52.49
2019-06-26T23:22:51.819Z,52.25
2019-06-26T23:24:58.345Z,51.84
2019-06-26T23:27:04.914Z,51.78
2019-06-26T23:29:11.366Z,51.64
2019-06-26T23:31:17.778Z,51.44
2019-06-26T23:33:24.292Z,51.50
2019-06-26T23:35:30.736Z,51.34
2019-06-26T23:37:38.294Z,51.25
2019-06-26T23:39:45.028Z,51.27
2019-06-26T23:41:51.423Z,51.47
2019-06-26T23:43:57.812Z,51.37
2019-06-26T23:46:04.698Z,51.39
2019-06-26T23:48:11.128Z,51.53
2019-06-26T23:50:17.957Z,51.70
2019-06-26T23:52:24.396Z,51.85
2019-06-26T23:54:30.829Z,52.02
2019-06-26T23:56:40.772Z,52.11
2019-06-26T23:58:45.366Z,52.21
